createdAt,value
2023-02-23T00:02:21.449Z,119.50
2023-02-23T00:04:49.788Z,123.70
2023-02-23T00:07:20.589Z,119.17
2023-02-23T00:09:49.114Z,124.00
2023-02-23T00:12:20.874Z,120.27
2023-02-23T00:14:49.400Z,114.57
2023-02-23T00:17:18.232Z,121.83
2023-02-23T00:19:49.477Z,122.10
2023-02-23T00:22:18.526Z,118.43
2023-02-23T00:24:47.956Z,122.13
2023-02-23T00:27:21.288Z,117.80
2023-02-23T00:29:51.862Z,117.53
2023-02-23T00:32:24.034Z,107.80
2023-02-23T00:34:52.616Z,109.30
2023-02-23T00:37:22.812Z,108.97
2023-02-23T00:39:52.230Z,105.00
2023-02-23T00:42:21.183Z,125.30
2023-02-23T00:44:49.878Z,119.57
2023-02-23T00:47:20.329Z,109.50
2023-02-23T00:49:50.942Z,103.07
2023-02-23T00:52:20.745Z,108.03
2023-02-23T00:54:49.199Z,103.97
2023-02-23T00:57:17.700Z,94.57
2023-02-23T00:59:46.502Z,102.43
2023-02-23T01:02:15.481Z,105.37
2023-02-23T01:04:45.291Z,111.33
2023-02-23T01:07:13.873Z,112.33
2023-02-23T01:09:42.366Z,115.73
2023-02-23T01:12:12.275Z,114.23
2023-02-23T01:14:42.588Z,123.30
2023-02-23T01:17:12.387Z,101.37
2023-02-23T01:19:40.816Z,119.50
2023-02-23T01:22:10.622Z,111.90
2023-02-23T01:24:41.013Z,111.27
2023-02-23T01:27:09.500Z,97.83
2023-02-23T01:29:37.808Z,96.47
2023-02-23T01:32:06.923Z,125.43
2023-02-23T01:34:35.478Z,131.07
2023-02-23T01:37:04.958Z,145.30
2023-02-23T01:39:34.857Z,150.13
2023-02-23T01:42:05.419Z,136.83
2023-02-23T01:45:22.813Z,147.83
2023-02-23T01:47:53.202Z,146.27
2023-02-23T01:50:24.379Z,147.77
2023-02-23T01:52:54.050Z,143.17
2023-02-23T01:55:25.951Z,150.63
2023-02-23T01:57:59.738Z,160.93
2023-02-23T02:00:28.515Z,142.53
2023-02-23T02:02:58.445Z,150.20
2023-02-23T02:05:31.095Z,160.93
2023-02-23T02:08:00.678Z,152.97
2023-02-23T02:10:46.574Z,146.30
2023-02-23T02:13:22.344Z,151.40
2023-02-23T02:16:29.549Z,148.30
2023-02-23T02:19:22.243Z,150.03
2023-02-23T02:22:38.442Z,158.00
2023-02-23T02:25:35.683Z,148.50
2023-02-23T02:28:40.368Z,155.57
2023-02-23T02:31:46.201Z,164.50
2023-02-23T02:34:42.579Z,161.93
2023-02-23T02:37:33.274Z,168.07
2023-02-23T02:40:16.820Z,153.53
2023-02-23T02:43:10.458Z,171.63
2023-02-23T02:45:45.535Z,166.67
2023-02-23T02:48:22.053Z,174.30
2023-02-23T02:50:56.670Z,172.17
2023-02-23T02:53:36.626Z,175.47
2023-02-23T02:56:07.884Z,169.83
2023-02-23T02:58:43.679Z,165.30
2023-02-23T03:01:33.642Z,172.07
2023-02-23T03:04:23.213Z,173.30
2023-02-23T03:07:17.788Z,174.67
2023-02-23T03:10:14.616Z,179.97
2023-02-23T03:13:13.813Z,184.13
2023-02-23T03:16:11.778Z,168.43
2023-02-23T03:19:14.193Z,175.00
2023-02-23T03:22:08.007Z,182.17
2023-02-23T03:25:01.595Z,181.87
2023-02-23T03:28:02.789Z,187.13
2023-02-23T03:30:58.711Z,181.30
2023-02-23T03:33:55.032Z,184.63
2023-02-23T03:36:45.159Z,200.43
2023-02-23T03:39:38.918Z,179.77
2023-02-23T03:42:29.585Z,184.87
2023-02-23T03:45:20.382Z,183.53
2023-02-23T03:48:09.349Z,188.97
2023-02-23T03:51:00.562Z,183.00
2023-02-23T03:53:52.139Z,201.87
2023-02-23T03:56:44.347Z,190.57
2023-02-23T03:59:34.618Z,174.17
2023-02-23T04:02:23.829Z,176.97
2023-02-23T04:05:11.646Z,179.37
2023-02-23T04:07:59.486Z,178.47
2023-02-23T04:10:47.547Z,173.37
2023-02-23T04:13:20.990Z,191.57
2023-02-23T04:15:52.902Z,179.93
2023-02-23T04:18:25.902Z,184.27
2023-02-23T04:20:55.360Z,180.40
2023-02-23T04:23:24.196Z,177.13
2023-02-23T04:25:53.458Z,183.83
2023-02-23T04:28:22.408Z,185.07
2023-02-23T04:30:52.580Z,196.47
2023-02-23T04:33:21.740Z,168.40
2023-02-23T04:35:53.600Z,172.63
2023-02-23T04:38:22.107Z,223.73
2023-02-23T04:40:51.053Z,185.77
2023-02-23T04:43:19.538Z,172.40
2023-02-23T04:45:47.947Z,169.27
2023-02-23T04:48:16.282Z,188.83
2023-02-23T04:50:44.651Z,187.27
2023-02-23T04:53:14.511Z,198.67
2023-02-23T04:55:43.680Z,202.17
2023-02-23T04:58:13.753Z,200.33
2023-02-23T05:00:42.290Z,206.70
2023-02-23T05:03:12.342Z,204.97
2023-02-23T05:05:40.809Z,201.63
2023-02-23T05:08:09.204Z,217.53
2023-02-23T05:10:40.377Z,222.43
2023-02-23T05:13:09.141Z,234.10
2023-02-23T05:15:38.724Z,242.80
2023-02-23T05:18:07.438Z,231.90
2023-02-23T05:20:36.189Z,224.17
2023-02-23T05:23:04.617Z,235.27
2023-02-23T05:25:33.518Z,231.63
2023-02-23T05:28:03.826Z,251.90
2023-02-23T05:30:33.294Z,226.57
2023-02-23T05:33:01.696Z,240.63
2023-02-23T05:35:30.149Z,234.73
2023-02-23T05:37:58.553Z,236.43
2023-02-23T05:40:26.919Z,242.57
2023-02-23T05:43:00.550Z,265.43
2023-02-23T05:45:30.467Z,213.67
2023-02-23T05:47:59.122Z,240.70
2023-02-23T05:50:27.981Z,259.10
2023-02-23T05:52:56.354Z,254.77
2023-02-23T05:55:25.460Z,255.30
2023-02-23T05:57:54.347Z,247.73
2023-02-23T06:00:23.356Z,257.87
2023-02-23T06:02:54.078Z,305.80
2023-02-23T06:05:23.287Z,284.20
2023-02-23T06:07:51.873Z,249.20
2023-02-23T06:10:20.493Z,266.77
2023-02-23T06:12:48.817Z,258.37
2023-02-23T06:15:17.226Z,263.63
2023-02-23T06:17:45.705Z,280.17
2023-02-23T06:20:16.331Z,268.07
2023-02-23T06:22:48.221Z,253.70
2023-02-23T06:25:16.699Z,278.63
2023-02-23T06:27:45.603Z,266.20
2023-02-23T06:30:14.778Z,294.13
2023-02-23T06:32:43.430Z,277.23
2023-02-23T06:35:17.919Z,282.77
2023-02-23T06:37:46.425Z,255.23
2023-02-23T06:40:14.993Z,302.63
2023-02-23T06:42:43.389Z,283.10
2023-02-23T06:45:13.344Z,285.20
2023-02-23T06:47:42.077Z,264.20
2023-02-23T06:50:11.999Z,276.43
2023-02-23T06:52:42.169Z,316.87
2023-02-23T06:55:13.276Z,329.37
2023-02-23T06:57:41.741Z,257.60
2023-02-23T07:00:12.781Z,288.77
2023-02-23T07:02:41.369Z,276.03
2023-02-23T07:05:10.692Z,261.00
2023-02-23T07:07:39.675Z,262.00
2023-02-23T07:10:11.050Z,267.23
2023-02-23T07:12:39.543Z,293.20
2023-02-23T07:15:09.165Z,314.07
2023-02-23T07:17:37.965Z,327.67
2023-02-23T07:20:07.395Z,346.43
2023-02-23T07:22:36.016Z,274.47
2023-02-23T07:25:04.626Z,357.83
2023-02-23T07:27:34.608Z,264.30
2023-02-23T07:30:03.885Z,259.77
2023-02-23T07:32:32.425Z,261.23
2023-02-23T07:35:00.974Z,315.80
2023-02-23T07:37:29.373Z,299.83
2023-02-23T07:40:00.071Z,283.40
2023-02-23T07:42:31.550Z,276.83
2023-02-23T07:45:01.583Z,307.57
2023-02-23T07:47:31.368Z,280.23
2023-02-23T07:50:00.734Z,270.93
2023-02-23T07:52:29.401Z,279.63
2023-02-23T07:54:57.869Z,297.47
2023-02-23T07:57:26.929Z,277.63
2023-02-23T07:59:55.416Z,263.10
2023-02-23T08:02:25.220Z,246.60
2023-02-23T08:04:55.288Z,260.53
2023-02-23T08:07:24.491Z,265.00
2023-02-23T08:09:53.699Z,257.73
2023-02-23T08:12:22.120Z,263.80
2023-02-23T08:14:50.520Z,289.60
2023-02-23T08:17:19.638Z,259.57
2023-02-23T08:19:50.127Z,254.40
2023-02-23T08:22:18.646Z,267.27
2023-02-23T08:24:47.078Z,244.47
2023-02-23T08:27:15.604Z,246.87
2023-02-23T08:29:44.009Z,232.07
2023-02-23T08:32:12.695Z,244.00
2023-02-23T08:34:42.945Z,249.63
2023-02-23T08:37:12.972Z,241.13
2023-02-23T08:39:43.394Z,223.73
2023-02-23T08:42:12.045Z,243.33
2023-02-23T08:44:40.413Z,234.07
2023-02-23T08:47:08.987Z,229.07
2023-02-23T08:49:37.476Z,231.80
2023-02-23T08:52:06.515Z,234.87
2023-02-23T08:54:36.312Z,222.03
2023-02-23T08:57:07.406Z,245.30
2023-02-23T08:59:37.019Z,217.00
2023-02-23T09:02:05.573Z,212.50
2023-02-23T09:04:35.399Z,210.13
2023-02-23T09:07:04.453Z,216.40
2023-02-23T09:09:34.255Z,222.57
2023-02-23T09:12:04.216Z,206.87
2023-02-23T09:14:32.620Z,210.27
2023-02-23T09:17:01.192Z,208.03
2023-02-23T09:19:29.685Z,200.20
2023-02-23T09:21:58.202Z,177.93
2023-02-23T09:24:26.740Z,182.97
2023-02-23T09:26:55.229Z,176.70
2023-02-23T09:29:25.297Z,170.37
2023-02-23T09:31:53.818Z,185.23
2023-02-23T09:34:22.298Z,160.07
2023-02-23T09:36:51.427Z,165.37
2023-02-23T09:39:29.125Z,160.33
2023-02-23T09:42:38.156Z,159.77
2023-02-23T09:45:27.280Z,148.67
2023-02-23T09:48:16.888Z,164.97
2023-02-23T09:50:49.061Z,150.13
2023-02-23T09:53:30.811Z,134.00
2023-02-23T09:56:01.520Z,139.73
2023-02-23T09:58:31.848Z,140.00
2023-02-23T10:01:34.916Z,138.97
2023-02-23T10:04:12.185Z,124.77
2023-02-23T10:06:45.661Z,117.77
2023-02-23T10:09:25.022Z,114.03
2023-02-23T10:12:00.659Z,128.03
2023-02-23T10:14:47.152Z,110.17
2023-02-23T10:17:28.008Z,114.30
2023-02-23T10:20:05.814Z,106.53
2023-02-23T10:22:36.147Z,118.77
2023-02-23T10:25:08.411Z,108.17
2023-02-23T10:27:42.129Z,92.53
2023-02-23T10:30:21.996Z,85.03
2023-02-23T10:32:55.788Z,79.47
2023-02-23T10:35:25.468Z,81.23
2023-02-23T10:37:55.635Z,82.03
2023-02-23T10:40:27.705Z,77.93
2023-02-23T10:42:57.341Z,80.10
2023-02-23T10:45:27.575Z,87.30
2023-02-23T10:47:59.944Z,81.27
2023-02-23T10:50:29.393Z,91.50
2023-02-23T10:53:01.384Z,95.27
2023-02-23T10:55:32.052Z,86.57
2023-02-23T10:58:17.134Z,81.53
2023-02-23T11:00:54.241Z,88.27
2023-02-23T11:03:33.417Z,86.33
2023-02-23T11:06:02.408Z,77.93
2023-02-23T11:08:34.586Z,82.60
2023-02-23T11:11:06.660Z,79.27
2023-02-23T11:13:41.075Z,74.47
2023-02-23T11:16:13.430Z,80.63
2023-02-23T11:18:50.408Z,69.33
2023-02-23T11:21:24.556Z,70.27
2023-02-23T11:23:56.012Z,64.13
2023-02-23T11:26:34.629Z,63.27
2023-02-23T11:29:11.490Z,62.20
2023-02-23T11:31:40.894Z,61.63
2023-02-23T11:34:22.967Z,62.97
2023-02-23T11:37:01.446Z,56.20
2023-02-23T11:39:30.017Z,52.17
2023-02-23T11:42:18.070Z,55.80
2023-02-23T11:44:52.623Z,52.97
2023-02-23T11:47:23.944Z,47.97
2023-02-23T11:49:55.473Z,46.23
2023-02-23T11:52:26.356Z,50.87
2023-02-23T11:54:57.841Z,48.77
2023-02-23T11:57:29.521Z,53.70
2023-02-23T11:59:59.507Z,51.80
2023-02-23T12:02:30.433Z,46.67
2023-02-23T12:05:08.982Z,48.10
2023-02-23T12:07:42.658Z,51.30
2023-02-23T12:10:22.676Z,52.77
2023-02-23T12:13:07.578Z,55.50
2023-02-23T12:15:46.946Z,54.07
2023-02-23T12:18:28.350Z,49.43
2023-02-23T12:21:03.124Z,55.17
2023-02-23T12:23:34.976Z,54.23
2023-02-23T12:26:09.633Z,52.40
2023-02-23T12:28:41.603Z,56.97
2023-02-23T12:31:23.708Z,54.67
2023-02-23T12:33:58.569Z,51.77
2023-02-23T12:36:38.560Z,54.20
2023-02-23T12:39:17.986Z,53.33
2023-02-23T12:41:52.742Z,57.83
2023-02-23T12:44:34.723Z,52.80
2023-02-23T12:47:09.270Z,56.37
2023-02-23T12:49:42.365Z,54.00
2023-02-23T12:52:16.983Z,56.40
2023-02-23T12:54:47.015Z,58.87
2023-02-23T12:57:25.160Z,54.33
2023-02-23T13:00:32.336Z,49.87
2023-02-23T13:03:26.862Z,50.90
2023-02-23T13:06:03.720Z,53.63
2023-02-23T13:08:48.986Z,55.27
2023-02-23T13:11:28.696Z,53.30
2023-02-23T13:14:02.406Z,58.20
2023-02-23T13:16:36.571Z,60.70
2023-02-23T13:19:15.402Z,58.17
2023-02-23T13:21:50.923Z,59.47
2023-02-23T13:24:25.286Z,62.93
2023-02-23T13:27:00.900Z,65.77
2023-02-23T13:29:36.648Z,62.33
2023-02-23T13:32:07.074Z,61.53
2023-02-23T13:34:41.334Z,63.33
2023-02-23T13:37:12.832Z,59.00
2023-02-23T13:39:48.888Z,64.13
2023-02-23T13:42:31.625Z,60.40
2023-02-23T13:45:21.820Z,61.50
2023-02-23T13:47:55.808Z,59.47
2023-02-23T13:50:30.991Z,57.87
2023-02-23T13:53:05.154Z,58.17
2023-02-23T13:55:49.793Z,61.23
2023-02-23T13:58:23.813Z,55.80
2023-02-23T14:01:05.302Z,57.53
2023-02-23T14:03:41.965Z,58.13
2023-02-23T14:06:15.214Z,57.50
2023-02-23T14:08:46.389Z,56.13
2023-02-23T14:14:17.114Z,49.80
2023-02-23T14:16:47.929Z,55.67
2023-02-23T14:19:37.110Z,58.33
2023-02-23T14:22:10.444Z,39.37
2023-02-23T14:24:38.915Z,36.57
2023-02-23T14:27:39.948Z,34.73
2023-02-23T14:30:25.454Z,30.13
2023-02-23T14:32:54.932Z,31.80
2023-02-23T14:35:56.244Z,33.53
2023-02-23T14:38:47.139Z,37.57
2023-02-23T14:41:16.608Z,36.63
2023-02-23T14:43:46.988Z,35.17
2023-02-23T14:46:22.263Z,39.43
2023-02-23T14:49:02.244Z,39.87
2023-02-23T14:51:42.406Z,40.07
2023-02-23T14:54:24.276Z,37.67
2023-02-23T14:56:54.337Z,38.03
2023-02-23T14:59:24.812Z,35.57
2023-02-23T15:01:57.086Z,36.03
2023-02-23T15:04:29.978Z,35.97
2023-02-23T15:07:02.045Z,39.67
2023-02-23T15:09:35.118Z,35.83
2023-02-23T15:12:14.591Z,36.83
2023-02-23T15:14:43.939Z,36.40
2023-02-23T15:17:19.176Z,36.20
2023-02-23T15:19:51.042Z,34.77
2023-02-23T15:22:26.412Z,39.37
2023-02-23T15:24:58.624Z,36.13
2023-02-23T15:27:31.846Z,42.67
2023-02-23T15:30:00.548Z,33.50
2023-02-23T15:32:30.577Z,42.80
2023-02-23T15:35:03.650Z,43.10
2023-02-23T15:37:37.594Z,36.90
2023-02-23T15:40:12.288Z,33.17
2023-02-23T15:42:43.624Z,35.53
2023-02-23T15:45:20.769Z,34.03
2023-02-23T15:47:55.347Z,36.10
2023-02-23T15:50:36.543Z,34.93
2023-02-23T15:53:13.923Z,33.67
2023-02-23T15:55:44.945Z,33.17
2023-02-23T15:58:19.074Z,32.20
2023-02-23T16:00:52.477Z,28.13
2023-02-23T16:03:31.745Z,31.03
2023-02-23T16:06:03.799Z,33.60
2023-02-23T16:08:32.805Z,29.77
2023-02-23T16:11:14.455Z,34.17
2023-02-23T16:13:46.185Z,29.53
2023-02-23T16:16:20.537Z,30.93
2023-02-23T16:18:55.181Z,29.27
2023-02-23T16:21:26.187Z,34.43
2023-02-23T16:23:58.516Z,34.77
2023-02-23T16:26:32.111Z,32.30
2023-02-23T16:29:03.256Z,33.90
2023-02-23T16:31:43.775Z,31.20
2023-02-23T16:34:26.443Z,28.20
2023-02-23T16:37:01.486Z,31.83
2023-02-23T16:39:34.411Z,28.97
2023-02-23T16:42:03.013Z,24.33
2023-02-23T16:44:42.971Z,24.70
2023-02-23T16:47:31.241Z,22.93
2023-02-23T16:50:13.633Z,22.50
2023-02-23T16:52:47.378Z,26.37
2023-02-23T16:55:18.814Z,22.17
2023-02-23T16:57:50.838Z,26.43
2023-02-23T17:00:26.303Z,27.93
2023-02-23T17:02:55.740Z,32.50
2023-02-23T17:05:26.264Z,27.60
2023-02-23T17:07:57.683Z,28.33
2023-02-23T17:10:28.587Z,26.77
2023-02-23T17:12:58.685Z,27.23
2023-02-23T17:15:29.784Z,25.43
2023-02-23T17:17:58.581Z,24.93
2023-02-23T17:20:29.736Z,31.33
2023-02-23T17:22:59.891Z,24.13
2023-02-23T17:25:28.840Z,27.63
2023-02-23T17:27:58.703Z,25.33
2023-02-23T17:30:28.477Z,22.90
2023-02-23T17:32:58.914Z,24.90
2023-02-23T17:35:29.278Z,26.57
2023-02-23T17:37:57.773Z,26.20
2023-02-23T17:40:29.155Z,27.70
2023-02-23T17:42:59.149Z,31.27
2023-02-23T17:45:28.229Z,24.47
2023-02-23T17:47:57.707Z,27.03
2023-02-23T17:50:30.521Z,24.73
2023-02-23T17:52:59.217Z,24.30
2023-02-23T17:55:27.650Z,18.93
2023-02-23T17:57:56.136Z,24.10
2023-02-23T18:00:25.228Z,20.97
2023-02-23T18:02:53.781Z,24.40
2023-02-23T18:05:22.844Z,22.97
2023-02-23T18:07:52.787Z,25.87
2023-02-23T18:10:25.370Z,19.50
2023-02-23T18:12:54.771Z,20.70
2023-02-23T18:15:23.731Z,19.20
2023-02-23T18:17:54.683Z,21.83
2023-02-23T18:20:23.589Z,23.13
2023-02-23T18:22:53.690Z,22.50
2023-02-23T18:25:24.403Z,22.80
2023-02-23T18:27:54.122Z,17.43
2023-02-23T18:30:24.837Z,21.53
2023-02-23T18:32:57.621Z,17.97
2023-02-23T18:35:26.285Z,20.17
2023-02-23T18:37:56.164Z,23.30
2023-02-23T18:40:24.957Z,18.10
2023-02-23T18:42:53.481Z,16.77
2023-02-23T18:45:22.181Z,21.53
2023-02-23T18:47:51.667Z,18.33
2023-02-23T18:50:21.411Z,21.60
2023-02-23T18:52:51.459Z,18.07
2023-02-23T18:55:23.291Z,19.40
2023-02-23T18:57:53.899Z,21.33
2023-02-23T19:00:23.308Z,17.77
2023-02-23T19:02:52.003Z,15.60
2023-02-23T19:05:22.215Z,20.40
2023-02-23T19:07:50.888Z,21.60
2023-02-23T19:10:19.579Z,16.70
2023-02-23T19:12:49.584Z,19.40
2023-02-23T19:15:18.587Z,21.50
2023-02-23T19:17:47.528Z,21.90
2023-02-23T19:20:16.339Z,23.30
2023-02-23T19:22:45.834Z,21.47
2023-02-23T19:25:15.350Z,18.10
2023-02-23T19:27:44.583Z,24.27
2023-02-23T19:30:15.195Z,19.90
2023-02-23T19:32:45.066Z,19.87
2023-02-23T19:35:15.884Z,21.50
2023-02-23T19:37:49.855Z,19.50
2023-02-23T19:40:21.941Z,17.90
2023-02-23T19:42:52.852Z,23.23
2023-02-23T19:45:24.939Z,18.67
2023-02-23T19:47:54.366Z,21.97
2023-02-23T19:50:23.373Z,22.23
2023-02-23T19:52:51.803Z,20.73
2023-02-23T19:55:21.335Z,22.70
2023-02-23T19:57:49.744Z,20.80
2023-02-23T20:00:19.057Z,22.60
2023-02-23T20:02:55.049Z,22.77
2023-02-23T20:05:25.799Z,21.20
2023-02-23T20:07:54.831Z,29.97
2023-02-23T20:10:25.989Z,27.47
2023-02-23T20:12:54.684Z,28.70
2023-02-23T20:15:23.471Z,18.13
2023-02-23T20:17:53.502Z,17.43
2023-02-23T20:20:25.697Z,19.33
2023-02-23T20:22:55.521Z,21.03
2023-02-23T20:25:24.594Z,15.87
2023-02-23T20:27:53.002Z,16.30
2023-02-23T20:30:22.347Z,15.30
2023-02-23T20:32:50.978Z,15.03
2023-02-23T20:35:21.272Z,18.17
2023-02-23T20:37:49.652Z,17.60
2023-02-23T20:40:18.762Z,21.90
2023-02-23T20:42:49.254Z,22.90
2023-02-23T20:45:19.391Z,20.60
2023-02-23T20:47:52.066Z,23.77
2023-02-23T20:50:22.838Z,30.67
2023-02-23T20:52:51.539Z,41.60
2023-02-23T20:55:20.063Z,29.73
2023-02-23T20:57:49.493Z,27.57
2023-02-23T21:00:23.168Z,33.03
2023-02-23T21:02:55.669Z,33.70
2023-02-23T21:05:27.407Z,30.77
2023-02-23T21:08:00.448Z,28.77
2023-02-23T21:10:31.442Z,27.03
2023-02-23T21:13:02.105Z,34.83
2023-02-23T21:15:33.681Z,24.50
2023-02-23T21:18:02.232Z,33.90
2023-02-23T21:20:33.063Z,27.07
2023-02-23T21:23:01.891Z,31.80
2023-02-23T21:25:30.510Z,28.20
2023-02-23T21:28:02.075Z,38.20
2023-02-23T21:30:31.477Z,35.70
2023-02-23T21:33:00.618Z,34.13
2023-02-23T21:35:29.698Z,41.47
2023-02-23T21:37:59.742Z,30.40
2023-02-23T21:40:28.518Z,35.90
2023-02-23T21:42:57.493Z,25.23
2023-02-23T21:45:26.079Z,34.83
2023-02-23T21:47:54.552Z,35.67
2023-02-23T21:50:23.351Z,31.57
2023-02-23T21:52:54.173Z,36.17
2023-02-23T21:55:24.106Z,28.13
2023-02-23T21:57:53.330Z,38.03
2023-02-23T22:00:23.116Z,33.23
2023-02-23T22:02:52.123Z,35.47
2023-02-23T22:05:21.445Z,29.90
2023-02-23T22:07:54.426Z,34.23
2023-02-23T22:10:26.365Z,32.73
2023-02-23T22:12:56.080Z,36.70
2023-02-23T22:15:28.434Z,29.87
2023-02-23T22:17:57.777Z,27.90
2023-02-23T22:20:26.563Z,31.93
2023-02-23T22:22:55.464Z,36.93
2023-02-23T22:25:26.216Z,33.73
2023-02-23T22:27:54.880Z,31.37
2023-02-23T22:30:23.568Z,35.30
2023-02-23T22:32:52.295Z,34.73
2023-02-23T22:35:21.201Z,33.63
2023-02-23T22:37:49.656Z,36.63
2023-02-23T22:40:18.685Z,30.43
2023-02-23T22:42:49.398Z,36.53
2023-02-23T22:45:20.436Z,37.23
2023-02-23T22:47:48.920Z,39.13
2023-02-23T22:50:19.321Z,31.20
2023-02-23T22:52:48.407Z,25.17
2023-02-23T22:55:18.398Z,30.30
2023-02-23T22:57:48.857Z,23.70
2023-02-23T23:00:20.298Z,37.07
2023-02-23T23:02:49.036Z,36.57
2023-02-23T23:05:17.798Z,38.87
2023-02-23T23:07:47.897Z,39.30
2023-02-23T23:10:17.745Z,43.00
2023-02-23T23:12:46.765Z,35.43
2023-02-23T23:15:19.108Z,32.13
2023-02-23T23:17:49.420Z,36.00
2023-02-23T23:20:23.121Z,26.67
2023-02-23T23:22:51.596Z,29.90
2023-02-23T23:25:23.306Z,29.00
2023-02-23T23:27:55.636Z,40.43
2023-02-23T23:30:29.295Z,32.73
2023-02-23T23:32:57.941Z,36.13
2023-02-23T23:35:26.828Z,23.20
2023-02-23T23:37:55.265Z,34.83
2023-02-23T23:40:24.895Z,33.60
2023-02-23T23:42:55.449Z,21.80
2023-02-23T23:45:25.353Z,30.63
2023-02-23T23:47:53.806Z,27.87
2023-02-23T23:50:26.974Z,27.73
2023-02-23T23:52:57.270Z,28.97
2023-02-23T23:55:31.410Z,25.50
2023-02-23T23:58:00.736Z,19.53
